sensor_id;sensor_type;location;lat;lon;timestamp;noise_LAeq;noise_LA_min;noise_LA_max;noise_LA01;noise_LA95
70245;Laerm;57637;49.272;8.590;2023-09-19T00:01:12;48.14;39.93;59.51;;
70245;Laerm;57637;49.272;8.590;2023-09-19T00:03:40;53.21;41.59;60.19;;
70245;Laerm;57637;49.272;8.590;2023-09-19T00:06:07;51.58;41.59;59.66;;
70245;Laerm;57637;49.272;8.590;2023-09-19T00:08:34;47.32;40.18;54.48;;
70245;Laerm;57637;49.272;8.590;2023-09-19T00:10:59;51.38;40.10;59.84;;
70245;Laerm;57637;49.272;8.590;2023-09-19T00:13:29;46.79;37.55;58.88;;
70245;Laerm;57637;49.272;8.590;2023-09-19T00:15:56;52.39;40.85;59.87;;
70245;Laerm;57637;49.272;8.590;2023-09-19T00:18:24;50.39;38.53;59.70;;
70245;Laerm;57637;49.272;8.590;2023-09-19T00:20:57;44.29;38.00;49.53;;
70245;Laerm;57637;49.272;8.590;2023-09-19T00:23:22;52.04;39.63;59.82;;
70245;Laerm;57637;49.272;8.590;2023-09-19T00:25:48;49.44;39.30;59.64;;
70245;Laerm;57637;49.272;8.590;2023-09-19T00:28:13;46.73;37.27;50.36;;
70245;Laerm;57637;49.272;8.590;2023-09-19T00:30:42;38.38;36.46;41.06;;
70245;Laerm;57637;49.272;8.590;2023-09-19T00:33:08;39.92;36.42;46.32;;
70245;Laerm;57637;49.272;8.590;2023-09-19T00:35:33;43.62;36.05;51.99;;
70245;Laerm;57637;49.272;8.590;2023-09-19T00:37:59;38.40;36.09;40.75;;
70245;Laerm;57637;49.272;8.590;2023-09-19T00:40:24;44.92;37.29;59.51;;
70245;Laerm;57637;49.272;8.590;2023-09-19T00:42:51;38.66;36.41;49.22;;
70245;Laerm;57637;49.272;8.590;2023-09-19T00:45:17;45.06;36.89;59.44;;
70245;Laerm;57637;49.272;8.590;2023-09-19T00:47:50;44.25;36.80;55.78;;
70245;Laerm;57637;49.272;8.590;2023-09-19T00:50:21;49.37;39.90;59.67;;
70245;Laerm;57637;49.272;8.590;2023-09-19T00:52:48;46.29;38.48;51.84;;
70245;Laerm;57637;49.272;8.590;2023-09-19T00:55:16;46.93;38.13;54.87;;
70245;Laerm;57637;49.272;8.590;2023-09-19T00:57:44;51.25;41.94;59.53;;
70245;Laerm;57637;49.272;8.590;2023-09-19T01:00:10;54.29;43.00;59.70;;
70245;Laerm;57637;49.272;8.590;2023-09-19T01:02:44;53.31;31.58;59.77;;
70245;Laerm;57637;49.272;8.590;2023-09-19T01:05:10;33.22;30.99;44.39;;
70245;Laerm;57637;49.272;8.590;2023-09-19T01:07:36;33.11;30.61;45.22;;
70245;Laerm;57637;49.272;8.590;2023-09-19T01:10:06;32.88;30.47;42.76;;
70245;Laerm;57637;49.272;8.590;2023-09-19T01:15:27;35.96;31.34;46.59;;
70245;Laerm;57637;49.272;8.590;2023-09-19T01:18:03;33.12;30.61;38.46;;
70245;Laerm;57637;49.272;8.590;2023-09-19T01:20:57;33.22;30.67;39.32;;
70245;Laerm;57637;49.272;8.590;2023-09-19T01:32:02;32.71;30.30;40.97;;
70245;Laerm;57637;49.272;8.590;2023-09-19T01:34:48;33.02;30.50;38.76;;
70245;Laerm;57637;49.272;8.590;2023-09-19T01:37:15;37.95;31.31;45.40;;
70245;Laerm;57637;49.272;8.590;2023-09-19T01:40:10;33.54;30.32;44.31;;
70245;Laerm;57637;49.272;8.590;2023-09-19T01:42:56;32.85;30.66;45.34;;
70245;Laerm;57637;49.272;8.590;2023-09-19T01:45:46;41.66;31.28;48.88;;
70245;Laerm;57637;49.272;8.590;2023-09-19T01:50:52;46.11;31.26;52.19;;
70245;Laerm;57637;49.272;8.590;2023-09-19T01:53:30;47.55;31.60;51.99;;
70245;Laerm;57637;49.272;8.590;2023-09-19T01:55:59;44.51;30.98;59.17;;
70245;Laerm;57637;49.272;8.590;2023-09-19T01:58:39;56.10;32.50;59.72;;
70245;Laerm;57637;49.272;8.590;2023-09-19T02:01:11;34.99;31.23;46.77;;
70245;Laerm;57637;49.272;8.590;2023-09-19T02:03:38;41.94;30.72;52.31;;
70245;Laerm;57637;49.272;8.590;2023-09-19T02:06:05;43.05;30.92;51.74;;
70245;Laerm;57637;49.272;8.590;2023-09-19T02:08:30;45.45;31.39;52.49;;
70245;Laerm;57637;49.272;8.590;2023-09-19T02:10:58;56.40;31.38;58.63;;
70245;Laerm;57637;49.272;8.590;2023-09-19T02:13:25;56.38;33.07;58.52;;
70245;Laerm;57637;49.272;8.590;2023-09-19T02:15:50;54.81;45.95;58.39;;
70245;Laerm;57637;49.272;8.590;2023-09-19T02:18:16;56.67;38.20;59.04;;
70245;Laerm;57637;49.272;8.590;2023-09-19T02:20:42;56.99;32.33;59.96;;
70245;Laerm;57637;49.272;8.590;2023-09-19T02:23:08;54.56;31.72;59.71;;
70245;Laerm;57637;49.272;8.590;2023-09-19T02:25:34;54.76;32.32;59.77;;
70245;Laerm;57637;49.272;8.590;2023-09-19T02:28:00;54.02;35.81;59.86;;
70245;Laerm;57637;49.272;8.590;2023-09-19T02:30:28;54.46;32.16;59.70;;
70245;Laerm;57637;49.272;8.590;2023-09-19T02:32:54;55.61;32.19;59.66;;
70245;Laerm;57637;49.272;8.590;2023-09-19T02:35:19;54.03;43.87;59.92;;
70245;Laerm;57637;49.272;8.590;2023-09-19T02:37:46;47.91;36.15;53.73;;
70245;Laerm;57637;49.272;8.590;2023-09-19T02:40:11;43.08;35.94;48.51;;
70245;Laerm;57637;49.272;8.590;2023-09-19T02:42:53;52.60;37.62;60.10;;
70245;Laerm;57637;49.272;8.590;2023-09-19T02:45:19;41.68;37.68;47.16;;
70245;Laerm;57637;49.272;8.590;2023-09-19T02:47:45;55.81;36.03;60.08;;
70245;Laerm;57637;49.272;8.590;2023-09-19T02:50:11;56.26;45.04;59.82;;
70245;Laerm;57637;49.272;8.590;2023-09-19T02:52:38;54.81;42.17;60.09;;
70245;Laerm;57637;49.272;8.590;2023-09-19T02:55:03;47.41;43.03;52.57;;
70245;Laerm;57637;49.272;8.590;2023-09-19T02:57:31;49.37;36.39;59.69;;
70245;Laerm;57637;49.272;8.590;2023-09-19T02:59:59;39.23;36.68;45.75;;
70245;Laerm;57637;49.272;8.590;2023-09-19T03:02:26;44.55;36.67;50.79;;
70245;Laerm;57637;49.272;8.590;2023-09-19T03:04:53;39.09;36.28;51.55;;
70245;Laerm;57637;49.272;8.590;2023-09-19T03:07:19;52.89;40.51;60.06;;
70245;Laerm;57637;49.272;8.590;2023-09-19T03:09:44;49.55;38.08;59.94;;
70245;Laerm;57637;49.272;8.590;2023-09-19T03:12:10;49.31;34.86;64.23;;
70245;Laerm;57637;49.272;8.590;2023-09-19T03:14:36;54.86;32.20;59.74;;
70245;Laerm;57637;49.272;8.590;2023-09-19T03:17:01;56.31;33.98;59.81;;
70245;Laerm;57637;49.272;8.590;2023-09-19T03:19:30;57.12;32.09;59.90;;
70245;Laerm;57637;49.272;8.590;2023-09-19T03:21:58;56.42;33.65;60.05;;
70245;Laerm;57637;49.272;8.590;2023-09-19T03:24:24;55.21;34.07;58.65;;
70245;Laerm;57637;49.272;8.590;2023-09-19T03:26:49;57.57;54.45;58.94;;
70245;Laerm;57637;49.272;8.590;2023-09-19T03:29:14;53.62;47.01;59.91;;
70245;Laerm;57637;49.272;8.590;2023-09-19T03:31:41;58.67;54.33;59.96;;
70245;Laerm;57637;49.272;8.590;2023-09-19T03:34:06;54.08;36.60;58.42;;
70245;Laerm;57637;49.272;8.590;2023-09-19T03:36:35;56.63;32.60;59.93;;
70245;Laerm;57637;49.272;8.590;2023-09-19T03:39:01;57.98;54.80;59.86;;
70245;Laerm;57637;49.272;8.590;2023-09-19T03:41:27;56.53;48.96;58.65;;
70245;Laerm;57637;49.272;8.590;2023-09-19T03:43:52;54.93;47.91;58.59;;
70245;Laerm;57637;49.272;8.590;2023-09-19T03:46:18;53.64;48.63;62.28;;
70245;Laerm;57637;49.272;8.590;2023-09-19T03:48:43;49.04;31.15;62.23;;
70245;Laerm;57637;49.272;8.590;2023-09-19T03:51:09;39.64;30.36;60.82;;
70245;Laerm;57637;49.272;8.590;2023-09-19T03:53:34;34.40;30.15;49.29;;
70245;Laerm;57637;49.272;8.590;2023-09-19T03:56:00;34.83;30.22;47.32;;
70245;Laerm;57637;49.272;8.590;2023-09-19T03:58:26;48.59;30.07;54.09;;
70245;Laerm;57637;49.272;8.590;2023-09-19T04:00:55;51.52;44.23;54.80;;
70245;Laerm;57637;49.272;8.590;2023-09-19T04:03:21;39.53;30.82;54.62;;
70245;Laerm;57637;49.272;8.590;2023-09-19T04:05:47;36.47;30.64;50.13;;
70245;Laerm;57637;49.272;8.590;2023-09-19T04:08:15;36.18;31.94;52.71;;
70245;Laerm;57637;49.272;8.590;2023-09-19T04:10:44;36.99;30.76;49.52;;
70245;Laerm;57637;49.272;8.590;2023-09-19T04:13:10;47.11;31.74;77.77;;
70245;Laerm;57637;49.272;8.590;2023-09-19T04:15:36;37.07;31.51;46.91;;
70245;Laerm;57637;49.272;8.590;2023-09-19T04:18:03;35.91;31.81;45.13;;
70245;Laerm;57637;49.272;8.590;2023-09-19T04:20:28;38.26;31.83;52.61;;
70245;Laerm;57637;49.272;8.590;2023-09-19T04:22:54;39.28;33.00;55.22;;
70245;Laerm;57637;49.272;8.590;2023-09-19T04:25:20;43.14;32.37;71.67;;
70245;Laerm;57637;49.272;8.590;2023-09-19T04:27:46;40.14;32.67;54.30;;
70245;Laerm;57637;49.272;8.590;2023-09-19T04:30:12;43.88;32.99;72.07;;
70245;Laerm;57637;49.272;8.590;2023-09-19T04:32:41;39.92;31.04;54.49;;
70245;Laerm;57637;49.272;8.590;2023-09-19T04:35:07;41.81;34.54;58.26;;
70245;Laerm;57637;49.272;8.590;2023-09-19T04:37:36;38.72;33.93;49.34;;
70245;Laerm;57637;49.272;8.590;2023-09-19T04:40:03;39.34;34.35;48.59;;
70245;Laerm;57637;49.272;8.590;2023-09-19T04:42:31;39.92;34.21;60.02;;
70245;Laerm;57637;49.272;8.590;2023-09-19T04:44:56;41.85;35.28;58.01;;
70245;Laerm;57637;49.272;8.590;2023-09-19T04:47:22;36.94;33.10;44.25;;
70245;Laerm;57637;49.272;8.590;2023-09-19T04:49:47;38.78;33.44;55.75;;
70245;Laerm;57637;49.272;8.590;2023-09-19T04:52:13;39.84;34.30;57.08;;
70245;Laerm;57637;49.272;8.590;2023-09-19T04:54:40;40.54;33.65;60.24;;
70245;Laerm;57637;49.272;8.590;2023-09-19T04:57:06;37.96;33.68;55.39;;
70245;Laerm;57637;49.272;8.590;2023-09-19T04:59:32;38.39;33.11;50.27;;
70245;Laerm;57637;49.272;8.590;2023-09-19T05:01:58;40.26;33.91;51.85;;
70245;Laerm;57637;49.272;8.590;2023-09-19T05:04:24;43.34;33.01;65.85;;
70245;Laerm;57637;49.272;8.590;2023-09-19T05:06:49;39.57;34.47;53.47;;
70245;Laerm;57637;49.272;8.590;2023-09-19T05:09:14;39.36;32.52;57.29;;
70245;Laerm;57637;49.272;8.590;2023-09-19T05:11:40;40.57;33.53;55.79;;
70245;Laerm;57637;49.272;8.590;2023-09-19T05:14:06;38.38;32.86;53.07;;
70245;Laerm;57637;49.272;8.590;2023-09-19T05:16:31;41.50;34.15;59.09;;
70245;Laerm;57637;49.272;8.590;2023-09-19T05:18:57;41.64;34.45;59.76;;
70245;Laerm;57637;49.272;8.590;2023-09-19T05:21:25;40.99;33.58;61.06;;
70245;Laerm;57637;49.272;8.590;2023-09-19T05:23:53;41.33;34.86;54.08;;
70245;Laerm;57637;49.272;8.590;2023-09-19T05:26:19;42.51;35.33;56.37;;
70245;Laerm;57637;49.272;8.590;2023-09-19T05:28:44;42.08;33.54;57.11;;
70245;Laerm;57637;49.272;8.590;2023-09-19T05:31:10;42.69;35.22;59.54;;
70245;Laerm;57637;49.272;8.590;2023-09-19T05:33:35;40.74;34.66;53.11;;
70245;Laerm;57637;49.272;8.590;2023-09-19T05:36:00;40.73;33.69;57.75;;
70245;Laerm;57637;49.272;8.590;2023-09-19T05:38:26;39.46;33.46;50.83;;
70245;Laerm;57637;49.272;8.590;2023-09-19T05:40:51;40.25;34.31;51.45;;
70245;Laerm;57637;49.272;8.590;2023-09-19T05:43:17;41.08;35.58;62.63;;
70245;Laerm;57637;49.272;8.590;2023-09-19T05:45:43;45.78;33.97;63.73;;
70245;Laerm;57637;49.272;8.590;2023-09-19T05:48:11;47.59;34.73;63.41;;
70245;Laerm;57637;49.272;8.590;2023-09-19T05:50:38;44.21;34.27;59.95;;
70245;Laerm;57637;49.272;8.590;2023-09-19T05:53:04;47.29;35.60;69.52;;
70245;Laerm;57637;49.272;8.590;2023-09-19T05:55:30;47.29;36.30;68.88;;
70245;Laerm;57637;49.272;8.590;2023-09-19T05:57:55;50.68;37.35;71.76;;
70245;Laerm;57637;49.272;8.590;2023-09-19T06:00:22;43.78;34.27;63.89;;
70245;Laerm;57637;49.272;8.590;2023-09-19T06:02:55;44.14;32.74;61.62;;
70245;Laerm;57637;49.272;8.590;2023-09-19T06:05:21;42.55;33.06;59.38;;
70245;Laerm;57637;49.272;8.590;2023-09-19T06:07:47;41.73;32.78;56.22;;
70245;Laerm;57637;49.272;8.590;2023-09-19T06:10:13;39.08;34.67;52.30;;
70245;Laerm;57637;49.272;8.590;2023-09-19T06:12:40;41.41;35.46;56.47;;
70245;Laerm;57637;49.272;8.590;2023-09-19T06:15:06;40.45;33.59;54.05;;
70245;Laerm;57637;49.272;8.590;2023-09-19T06:17:34;41.02;33.70;59.03;;
70245;Laerm;57637;49.272;8.590;2023-09-19T06:20:05;42.73;33.33;56.98;;
70245;Laerm;57637;49.272;8.590;2023-09-19T06:22:34;44.45;32.15;64.54;;
70245;Laerm;57637;49.272;8.590;2023-09-19T06:25:01;43.55;32.11;68.12;;
70245;Laerm;57637;49.272;8.590;2023-09-19T06:27:27;40.24;33.24;55.10;;
70245;Laerm;57637;49.272;8.590;2023-09-19T06:29:52;40.71;34.13;65.54;;
70245;Laerm;57637;49.272;8.590;2023-09-19T06:32:18;40.29;33.92;58.53;;
70245;Laerm;57637;49.272;8.590;2023-09-19T06:34:43;49.61;34.92;75.85;;
70245;Laerm;57637;49.272;8.590;2023-09-19T06:37:08;41.45;35.43;56.63;;
70245;Laerm;57637;49.272;8.590;2023-09-19T06:39:34;42.30;34.44;58.46;;
70245;Laerm;57637;49.272;8.590;2023-09-19T06:41:59;45.15;34.86;61.08;;
70245;Laerm;57637;49.272;8.590;2023-09-19T06:44:27;46.09;35.28;63.88;;
70245;Laerm;57637;49.272;8.590;2023-09-19T06:46:54;49.27;37.25;66.35;;
70245;Laerm;57637;49.272;8.590;2023-09-19T06:49:20;48.54;39.42;61.89;;
70245;Laerm;57637;49.272;8.590;2023-09-19T06:51:45;50.76;41.72;61.13;;
70245;Laerm;57637;49.272;8.590;2023-09-19T06:54:11;50.91;39.79;66.37;;
70245;Laerm;57637;49.272;8.590;2023-09-19T06:56:36;44.48;34.50;64.46;;
70245;Laerm;57637;49.272;8.590;2023-09-19T06:59:02;43.95;34.01;61.39;;
70245;Laerm;57637;49.272;8.590;2023-09-19T07:01:28;44.28;34.64;57.43;;
70245;Laerm;57637;49.272;8.590;2023-09-19T07:03:54;38.82;34.21;51.79;;
70245;Laerm;57637;49.272;8.590;2023-09-19T07:06:19;40.85;34.26;56.38;;
70245;Laerm;57637;49.272;8.590;2023-09-19T07:08:45;39.75;32.46;57.73;;
70245;Laerm;57637;49.272;8.590;2023-09-19T07:11:10;42.72;33.41;53.67;;
70245;Laerm;57637;49.272;8.590;2023-09-19T07:13:37;45.58;31.96;60.17;;
70245;Laerm;57637;49.272;8.590;2023-09-19T07:16:03;38.56;33.43;54.45;;
70245;Laerm;57637;49.272;8.590;2023-09-19T07:18:29;45.61;35.25;62.68;;
70245;Laerm;57637;49.272;8.590;2023-09-19T07:20:57;38.82;33.39;53.19;;
70245;Laerm;57637;49.272;8.590;2023-09-19T07:23:26;38.47;33.15;57.51;;
70245;Laerm;57637;49.272;8.590;2023-09-19T07:25:52;43.99;33.09;64.50;;
70245;Laerm;57637;49.272;8.590;2023-09-19T07:28:21;43.44;34.73;62.89;;
70245;Laerm;57637;49.272;8.590;2023-09-19T07:30:48;39.19;33.22;57.01;;
70245;Laerm;57637;49.272;8.590;2023-09-19T07:33:13;39.92;32.87;52.26;;
70245;Laerm;57637;49.272;8.590;2023-09-19T07:35:39;39.31;32.42;56.38;;
70245;Laerm;57637;49.272;8.590;2023-09-19T07:38:07;37.98;33.72;50.33;;
70245;Laerm;57637;49.272;8.590;2023-09-19T07:40:33;41.26;34.69;71.14;;
70245;Laerm;57637;49.272;8.590;2023-09-19T07:42:58;40.46;34.00;57.24;;
70245;Laerm;57637;49.272;8.590;2023-09-19T07:45:28;40.50;33.97;57.63;;
70245;Laerm;57637;49.272;8.590;2023-09-19T07:47:55;47.74;34.15;61.33;;
70245;Laerm;57637;49.272;8.590;2023-09-19T07:50:20;39.54;33.75;54.24;;
70245;Laerm;57637;49.272;8.590;2023-09-19T07:52:47;39.98;33.15;51.61;;
70245;Laerm;57637;49.272;8.590;2023-09-19T07:55:13;37.86;32.72;63.65;;
70245;Laerm;57637;49.272;8.590;2023-09-19T07:57:45;37.80;32.65;53.06;;
70245;Laerm;57637;49.272;8.590;2023-09-19T08:00:12;37.36;33.54;47.42;;
70245;Laerm;57637;49.272;8.590;2023-09-19T08:02:39;38.32;33.16;55.09;;
70245;Laerm;57637;49.272;8.590;2023-09-19T08:05:05;38.83;34.22;49.02;;
70245;Laerm;57637;49.272;8.590;2023-09-19T08:07:32;41.81;35.62;56.90;;
70245;Laerm;57637;49.272;8.590;2023-09-19T08:09:58;38.66;35.10;48.10;;
70245;Laerm;57637;49.272;8.590;2023-09-19T08:12:24;38.70;35.44;51.37;;
70245;Laerm;57637;49.272;8.590;2023-09-19T08:14:49;46.81;35.29;61.54;;
70245;Laerm;57637;49.272;8.590;2023-09-19T08:17:15;51.11;37.22;66.61;;
70245;Laerm;57637;49.272;8.590;2023-09-19T08:19:41;53.08;35.82;67.67;;
70245;Laerm;57637;49.272;8.590;2023-09-19T08:22:07;38.25;34.44;53.71;;
70245;Laerm;57637;49.272;8.590;2023-09-19T08:24:36;38.15;34.04;55.13;;
70245;Laerm;57637;49.272;8.590;2023-09-19T08:27:01;37.87;34.35;47.22;;
70245;Laerm;57637;49.272;8.590;2023-09-19T08:29:29;37.65;34.49;46.95;;
70245;Laerm;57637;49.272;8.590;2023-09-19T08:31:55;39.09;33.82;55.41;;
70245;Laerm;57637;49.272;8.590;2023-09-19T08:34:25;39.50;34.16;51.67;;
70245;Laerm;57637;49.272;8.590;2023-09-19T08:36:51;40.88;35.24;60.38;;
70245;Laerm;57637;49.272;8.590;2023-09-19T08:39:18;39.79;35.02;60.09;;
70245;Laerm;57637;49.272;8.590;2023-09-19T08:41:44;38.56;34.16;48.16;;
70245;Laerm;57637;49.272;8.590;2023-09-19T08:44:10;40.92;35.53;54.58;;
70245;Laerm;57637;49.272;8.590;2023-09-19T08:46:37;40.53;36.03;48.65;;
70245;Laerm;57637;49.272;8.590;2023-09-19T08:49:15;42.52;36.91;58.21;;
70245;Laerm;57637;49.272;8.590;2023-09-19T08:51:54;42.31;34.70;53.42;;
70245;Laerm;57637;49.272;8.590;2023-09-19T08:54:29;42.94;35.60;62.21;;
70245;Laerm;57637;49.272;8.590;2023-09-19T08:57:00;49.73;36.62;65.66;;
70245;Laerm;57637;49.272;8.590;2023-09-19T08:59:37;47.26;36.02;58.82;;
70245;Laerm;57637;49.272;8.590;2023-09-19T09:02:03;41.03;34.18;65.76;;
70245;Laerm;57637;49.272;8.590;2023-09-19T09:04:29;40.82;35.12;60.01;;
70245;Laerm;57637;49.272;8.590;2023-09-19T09:06:56;43.90;37.40;61.15;;
70245;Laerm;57637;49.272;8.590;2023-09-19T09:09:23;41.91;35.52;52.30;;
70245;Laerm;57637;49.272;8.590;2023-09-19T09:11:49;39.61;34.70;48.38;;
70245;Laerm;57637;49.272;8.590;2023-09-19T09:14:19;39.74;34.53;56.79;;
70245;Laerm;57637;49.272;8.590;2023-09-19T09:16:44;41.84;34.74;54.68;;
70245;Laerm;57637;49.272;8.590;2023-09-19T09:19:10;46.91;36.88;61.18;;
70245;Laerm;57637;49.272;8.590;2023-09-19T09:21:39;42.95;34.75;59.65;;
70245;Laerm;57637;49.272;8.590;2023-09-19T09:24:29;40.62;35.23;57.16;;
70245;Laerm;57637;49.272;8.590;2023-09-19T09:26:56;44.19;36.93;52.46;;
70245;Laerm;57637;49.272;8.590;2023-09-19T09:29:42;41.56;36.01;57.83;;
70245;Laerm;57637;49.272;8.590;2023-09-19T09:32:27;41.04;35.48;58.08;;
70245;Laerm;57637;49.272;8.590;2023-09-19T09:35:07;40.27;35.62;60.25;;
70245;Laerm;57637;49.272;8.590;2023-09-19T09:37:34;45.59;35.69;63.86;;
70245;Laerm;57637;49.272;8.590;2023-09-19T09:40:04;45.36;35.05;66.21;;
70245;Laerm;57637;49.272;8.590;2023-09-19T09:42:50;51.13;36.71;75.24;;
70245;Laerm;57637;49.272;8.590;2023-09-19T09:45:24;47.04;37.63;73.71;;
70245;Laerm;57637;49.272;8.590;2023-09-19T09:47:59;47.42;36.98;74.57;;
70245;Laerm;57637;49.272;8.590;2023-09-19T09:50:35;47.59;35.71;72.95;;
70245;Laerm;57637;49.272;8.590;2023-09-19T09:53:26;52.62;34.80;66.88;;
70245;Laerm;57637;49.272;8.590;2023-09-19T09:56:07;44.33;36.26;65.94;;
70245;Laerm;57637;49.272;8.590;2023-09-19T09:58:49;43.74;36.54;62.83;;
70245;Laerm;57637;49.272;8.590;2023-09-19T10:01:17;44.70;37.13;65.02;;
70245;Laerm;57637;49.272;8.590;2023-09-19T10:03:43;45.76;36.36;68.49;;
70245;Laerm;57637;49.272;8.590;2023-09-19T10:06:13;41.70;35.66;61.42;;
70245;Laerm;57637;49.272;8.590;2023-09-19T10:09:01;44.24;37.62;54.58;;
70245;Laerm;57637;49.272;8.590;2023-09-19T10:11:45;41.08;36.29;54.06;;
70245;Laerm;57637;49.272;8.590;2023-09-19T10:14:20;44.90;38.58;57.64;;
70245;Laerm;57637;49.272;8.590;2023-09-19T10:16:51;43.62;36.30;70.52;;
70245;Laerm;57637;49.272;8.590;2023-09-19T10:22:14;50.80;39.39;79.71;;
70245;Laerm;57637;49.272;8.590;2023-09-19T10:24:47;49.26;38.33;77.01;;
70245;Laerm;57637;49.272;8.590;2023-09-19T10:27:12;43.10;35.87;60.86;;
70245;Laerm;57637;49.272;8.590;2023-09-19T10:29:42;45.09;35.24;76.46;;
70245;Laerm;57637;49.272;8.590;2023-09-19T10:32:10;44.09;36.14;75.72;;
70245;Laerm;57637;49.272;8.590;2023-09-19T10:34:46;42.21;35.65;68.69;;
70245;Laerm;57637;49.272;8.590;2023-09-19T10:37:12;42.83;35.99;60.18;;
70245;Laerm;57637;49.272;8.590;2023-09-19T10:39:39;44.94;37.29;73.72;;
70245;Laerm;57637;49.272;8.590;2023-09-19T10:42:06;43.24;35.46;70.64;;
70245;Laerm;57637;49.272;8.590;2023-09-19T10:44:37;49.06;35.97;74.92;;
70245;Laerm;57637;49.272;8.590;2023-09-19T10:47:09;39.21;35.11;50.60;;
70245;Laerm;57637;49.272;8.590;2023-09-19T10:49:35;39.00;34.24;45.83;;
70245;Laerm;57637;49.272;8.590;2023-09-19T10:52:01;40.67;37.06;53.53;;
70245;Laerm;57637;49.272;8.590;2023-09-19T10:54:32;43.52;35.63;67.76;;
70245;Laerm;57637;49.272;8.590;2023-09-19T10:56:59;42.29;35.11;55.66;;
70245;Laerm;57637;49.272;8.590;2023-09-19T10:59:26;43.14;36.30;54.78;;
70245;Laerm;57637;49.272;8.590;2023-09-19T11:02:00;42.66;36.59;56.01;;
70245;Laerm;57637;49.272;8.590;2023-09-19T11:04:40;41.64;35.56;55.71;;
70245;Laerm;57637;49.272;8.590;2023-09-19T11:07:10;41.73;36.41;49.00;;
70245;Laerm;57637;49.272;8.590;2023-09-19T11:12:08;41.48;36.56;49.48;;
70245;Laerm;57637;49.272;8.590;2023-09-19T11:14:38;42.60;36.83;54.24;;
70245;Laerm;57637;49.272;8.590;2023-09-19T11:30:49;44.45;36.67;66.53;;
70245;Laerm;57637;49.272;8.590;2023-09-19T11:33:22;42.34;35.99;61.45;;
70245;Laerm;57637;49.272;8.590;2023-09-19T11:36:10;41.09;35.90;61.93;;
70245;Laerm;57637;49.272;8.590;2023-09-19T11:49:16;39.62;34.40;52.96;;
70245;Laerm;57637;49.272;8.590;2023-09-19T11:51:50;40.28;34.78;51.97;;
70245;Laerm;57637;49.272;8.590;2023-09-19T11:54:17;43.23;35.72;55.70;;
70245;Laerm;57637;49.272;8.590;2023-09-19T11:56:51;40.56;34.22;52.46;;
70245;Laerm;57637;49.272;8.590;2023-09-19T11:59:29;42.17;35.27;55.13;;
70245;Laerm;57637;49.272;8.590;2023-09-19T12:02:04;43.42;36.00;62.51;;
70245;Laerm;57637;49.272;8.590;2023-09-19T12:04:40;45.02;36.79;67.53;;
70245;Laerm;57637;49.272;8.590;2023-09-19T12:07:13;49.72;35.34;78.02;;
70245;Laerm;57637;49.272;8.590;2023-09-19T12:09:46;45.26;34.24;64.47;;
70245;Laerm;57637;49.272;8.590;2023-09-19T12:12:20;46.56;34.62;76.35;;
70245;Laerm;57637;49.272;8.590;2023-09-19T12:14:49;40.05;34.43;53.64;;
70245;Laerm;57637;49.272;8.590;2023-09-19T12:17:16;39.17;35.37;53.52;;
70245;Laerm;57637;49.272;8.590;2023-09-19T12:19:53;44.72;37.17;55.60;;
70245;Laerm;57637;49.272;8.590;2023-09-19T12:22:19;45.06;37.53;63.73;;
70245;Laerm;57637;49.272;8.590;2023-09-19T12:24:48;43.16;35.91;63.52;;
70245;Laerm;57637;49.272;8.590;2023-09-19T12:27:15;42.27;35.47;63.16;;
70245;Laerm;57637;49.272;8.590;2023-09-19T12:29:48;43.11;34.90;63.48;;
70245;Laerm;57637;49.272;8.590;2023-09-19T12:32:14;44.28;34.38;67.20;;
70245;Laerm;57637;49.272;8.590;2023-09-19T12:34:49;42.33;35.10;64.29;;
70245;Laerm;57637;49.272;8.590;2023-09-19T12:37:16;43.15;34.39;62.66;;
70245;Laerm;57637;49.272;8.590;2023-09-19T12:40:06;43.89;34.94;61.02;;
70245;Laerm;57637;49.272;8.590;2023-09-19T12:42:48;44.81;37.21;58.89;;
70245;Laerm;57637;49.272;8.590;2023-09-19T12:45:15;42.58;34.46;68.92;;
70245;Laerm;57637;49.272;8.590;2023-09-19T12:48:20;51.22;36.73;78.25;;
70245;Laerm;57637;49.272;8.590;2023-09-19T12:53:32;43.10;36.81;55.16;;
70245;Laerm;57637;49.272;8.590;2023-09-19T12:55:59;42.24;35.23;51.20;;
70245;Laerm;57637;49.272;8.590;2023-09-19T12:58:25;42.67;36.52;57.01;;
70245;Laerm;57637;49.272;8.590;2023-09-19T13:00:51;42.94;35.34;53.55;;
70245;Laerm;57637;49.272;8.590;2023-09-19T13:06:02;43.25;36.07;65.57;;
70245;Laerm;57637;49.272;8.590;2023-09-19T13:08:39;43.30;35.56;59.08;;
70245;Laerm;57637;49.272;8.590;2023-09-19T13:11:14;40.68;35.14;51.37;;
70245;Laerm;57637;49.272;8.590;2023-09-19T13:16:59;49.27;37.34;83.89;;
70245;Laerm;57637;49.272;8.590;2023-09-19T13:25:24;39.67;34.07;54.06;;
70245;Laerm;57637;49.272;8.590;2023-09-19T13:27:56;42.37;36.18;53.11;;
70245;Laerm;57637;49.272;8.590;2023-09-19T13:30:24;41.91;34.61;61.78;;
70245;Laerm;57637;49.272;8.590;2023-09-19T13:32:51;38.75;34.63;49.36;;
70245;Laerm;57637;49.272;8.590;2023-09-19T13:35:18;42.59;34.15;61.89;;
70245;Laerm;57637;49.272;8.590;2023-09-19T13:37:44;49.30;37.52;61.99;;
70245;Laerm;57637;49.272;8.590;2023-09-19T13:40:14;40.55;35.80;50.18;;
70245;Laerm;57637;49.272;8.590;2023-09-19T13:42:41;43.55;35.70;54.86;;
70245;Laerm;57637;49.272;8.590;2023-09-19T13:45:07;45.44;38.22;57.30;;
70245;Laerm;57637;49.272;8.590;2023-09-19T13:47:33;42.46;36.41;52.72;;
70245;Laerm;57637;49.272;8.590;2023-09-19T13:49:59;41.72;36.58;56.75;;
70245;Laerm;57637;49.272;8.590;2023-09-19T13:52:26;41.37;35.85;51.98;;
70245;Laerm;57637;49.272;8.590;2023-09-19T13:54:53;44.64;37.92;61.75;;
70245;Laerm;57637;49.272;8.590;2023-09-19T13:57:19;44.32;35.98;54.13;;
70245;Laerm;57637;49.272;8.590;2023-09-19T13:59:44;41.43;36.27;49.54;;
70245;Laerm;57637;49.272;8.590;2023-09-19T14:02:10;45.03;35.37;68.66;;
70245;Laerm;57637;49.272;8.590;2023-09-19T14:04:35;46.48;35.77;65.43;;
70245;Laerm;57637;49.272;8.590;2023-09-19T14:07:01;50.06;36.78;65.93;;
70245;Laerm;57637;49.272;8.590;2023-09-19T14:09:27;43.72;37.22;60.51;;
70245;Laerm;57637;49.272;8.590;2023-09-19T14:11:52;42.09;37.37;51.84;;
70245;Laerm;57637;49.272;8.590;2023-09-19T14:14:21;42.47;35.35;55.16;;
70245;Laerm;57637;49.272;8.590;2023-09-19T14:16:50;41.05;36.37;48.75;;
70245;Laerm;57637;49.272;8.590;2023-09-19T14:19:17;43.44;35.42;63.71;;
70245;Laerm;57637;49.272;8.590;2023-09-19T14:21:43;41.40;35.31;55.13;;
70245;Laerm;57637;49.272;8.590;2023-09-19T14:24:09;43.36;35.77;61.16;;
70245;Laerm;57637;49.272;8.590;2023-09-19T14:26:38;40.55;35.35;53.11;;
70245;Laerm;57637;49.272;8.590;2023-09-19T14:29:04;44.42;35.85;62.28;;
70245;Laerm;57637;49.272;8.590;2023-09-19T14:31:29;42.33;36.60;56.66;;
70245;Laerm;57637;49.272;8.590;2023-09-19T14:33:55;41.40;36.16;57.52;;
70245;Laerm;57637;49.272;8.590;2023-09-19T14:36:25;44.63;38.44;55.74;;
70245;Laerm;57637;49.272;8.590;2023-09-19T14:38:54;50.63;38.68;69.19;;
70245;Laerm;57637;49.272;8.590;2023-09-19T14:41:20;52.93;36.21;62.32;;
70245;Laerm;57637;49.272;8.590;2023-09-19T14:43:46;57.12;45.33;66.49;;
70245;Laerm;57637;49.272;8.590;2023-09-19T14:46:11;57.88;46.71;67.38;;
70245;Laerm;57637;49.272;8.590;2023-09-19T14:48:37;57.60;48.26;69.75;;
70245;Laerm;57637;49.272;8.590;2023-09-19T14:51:03;59.39;36.21;69.05;;